createdAt,value
2018-08-11T00:00:17.114Z,19.94
2018-08-11T00:01:17.184Z,19.88
2018-08-11T00:03:10.173Z,20.00
2018-08-11T00:04:10.227Z,19.99
2018-08-11T00:06:03.229Z,19.99
2018-08-11T00:07:03.283Z,19.91
2018-08-11T00:08:56.279Z,19.89
2018-08-11T00:09:56.342Z,19.96
2018-08-11T00:11:49.343Z,19.95
2018-08-11T00:12:49.403Z,20.06
2018-08-11T00:14:42.402Z,19.96
2018-08-11T00:15:42.465Z,19.99
2018-08-11T00:17:35.463Z,19.95
2018-08-11T00:18:35.521Z,20.00
2018-08-11T00:20:28.510Z,20.03
2018-08-11T00:21:28.576Z,20.00
2018-08-11T00:23:21.574Z,20.03
2018-08-11T00:24:21.632Z,19.99
2018-08-11T00:26:14.636Z,20.03
2018-08-11T00:27:14.689Z,19.91
2018-08-11T00:29:07.699Z,20.03
2018-08-11T00:30:07.748Z,20.09
2018-08-11T00:32:00.745Z,20.06
2018-08-11T00:33:00.803Z,20.03
2018-08-11T00:34:53.801Z,19.86
2018-08-11T00:35:53.862Z,19.88
2018-08-11T00:37:46.874Z,19.82
2018-08-11T00:38:46.919Z,19.79
2018-08-11T00:40:39.924Z,19.76
2018-08-11T00:41:39.988Z,19.74
2018-08-11T00:43:32.986Z,19.69
2018-08-11T00:44:33.043Z,19.69
2018-08-11T00:46:26.045Z,19.40
2018-08-11T00:47:26.110Z,19.48
2018-08-11T00:49:19.107Z,19.40
2018-08-11T00:50:19.165Z,19.30
2018-08-11T00:52:12.161Z,19.36
2018-08-11T00:53:12.223Z,19.26
2018-08-11T00:55:05.208Z,19.26
2018-08-11T00:56:05.280Z,19.26
2018-08-11T00:57:58.276Z,19.12
2018-08-11T00:58:58.332Z,19.09
2018-08-11T01:00:51.328Z,18.92
2018-08-11T01:01:51.389Z,18.81
2018-08-11T01:03:44.387Z,18.86
2018-08-11T01:04:44.441Z,18.78
2018-08-11T01:06:37.443Z,18.80
2018-08-11T01:07:37.501Z,18.70
2018-08-11T01:09:30.502Z,18.50
2018-08-11T01:10:30.569Z,18.45
2018-08-11T01:12:23.565Z,18.29
2018-08-11T01:13:23.618Z,18.33
2018-08-11T01:15:16.620Z,18.16
2018-08-11T01:16:16.678Z,18.04
2018-08-11T01:18:09.680Z,17.98
2018-08-11T01:19:09.732Z,17.85
2018-08-11T01:21:02.723Z,17.54
2018-08-11T01:22:02.787Z,17.38
2018-08-11T01:23:55.793Z,17.26
2018-08-11T01:24:55.849Z,17.05
2018-08-11T01:26:48.848Z,17.06
2018-08-11T01:27:48.902Z,16.96
2018-08-11T01:29:41.904Z,16.91
2018-08-11T01:30:41.961Z,16.83
2018-08-11T01:32:34.962Z,16.84
2018-08-11T01:33:35.018Z,16.86
2018-08-11T01:35:28.020Z,16.76
2018-08-11T01:36:28.083Z,16.64
2018-08-11T01:38:21.088Z,16.58
2018-08-11T01:39:21.137Z,16.46
2018-08-11T01:41:14.130Z,16.20
2018-08-11T01:42:14.191Z,16.29
2018-08-11T01:44:07.198Z,16.31
2018-08-11T01:45:07.252Z,16.28
2018-08-11T01:47:00.251Z,16.46
2018-08-11T01:48:00.307Z,16.23
2018-08-11T01:49:53.306Z,16.28
2018-08-11T01:50:53.364Z,16.20
2018-08-11T01:52:46.366Z,16.29
2018-08-11T01:53:46.420Z,16.21
2018-08-11T01:55:39.412Z,16.16
2018-08-11T01:56:39.498Z,16.28
2018-08-11T01:58:32.482Z,16.16
2018-08-11T01:59:32.537Z,16.05
2018-08-11T02:01:25.531Z,16.01
2018-08-11T02:02:25.592Z,16.04
2018-08-11T02:04:18.589Z,15.97
2018-08-11T02:05:18.643Z,15.90
2018-08-11T02:07:11.635Z,15.91
2018-08-11T02:08:11.701Z,15.70
2018-08-11T02:10:04.697Z,15.67
2018-08-11T02:11:04.753Z,15.70
2018-08-11T02:12:57.753Z,15.72
2018-08-11T02:13:57.802Z,15.65
2018-08-11T02:15:50.795Z,15.70
2018-08-11T02:16:50.857Z,15.72
2018-08-11T02:18:43.852Z,15.68
2018-08-11T02:19:43.908Z,15.65
2018-08-11T02:21:36.929Z,15.75
2018-08-11T02:22:36.956Z,15.68
2018-08-11T02:24:29.952Z,15.68
2018-08-11T02:25:30.008Z,15.62
2018-08-11T02:27:22.998Z,15.54
2018-08-11T02:28:23.063Z,15.52
2018-08-11T02:30:16.061Z,15.62
2018-08-11T02:31:16.110Z,15.57
2018-08-11T02:33:09.106Z,15.52
2018-08-11T02:34:09.188Z,15.59
2018-08-11T02:36:02.149Z,15.55
2018-08-11T02:37:02.210Z,15.43
2018-08-11T02:38:55.215Z,15.42
2018-08-11T02:39:55.262Z,15.39
2018-08-11T02:41:48.250Z,15.14
2018-08-11T02:42:48.309Z,15.22
2018-08-11T02:44:41.307Z,15.06
2018-08-11T02:45:41.365Z,15.07
2018-08-11T02:47:34.360Z,15.03
2018-08-11T02:48:34.422Z,15.07
2018-08-11T02:50:27.418Z,15.03
2018-08-11T02:51:27.471Z,15.04
2018-08-11T02:53:20.471Z,15.11
2018-08-11T02:54:20.527Z,15.14
2018-08-11T02:56:13.507Z,15.17
2018-08-11T02:57:13.571Z,15.15
2018-08-11T02:59:06.567Z,15.17
2018-08-11T03:00:06.624Z,15.25
2018-08-11T03:01:59.610Z,15.37
2018-08-11T03:02:59.673Z,15.25
2018-08-11T03:04:52.670Z,15.36
2018-08-11T03:05:52.727Z,15.37
2018-08-11T03:07:45.719Z,15.37
2018-08-11T03:08:45.779Z,15.46
2018-08-11T03:10:38.773Z,15.44
2018-08-11T03:11:38.829Z,15.43
2018-08-11T03:13:31.828Z,15.43
2018-08-11T03:14:31.878Z,15.42
2018-08-11T03:16:24.870Z,15.46
2018-08-11T03:17:24.932Z,15.43
2018-08-11T03:19:17.934Z,15.52
2018-08-11T03:20:17.981Z,15.57
2018-08-11T03:22:10.968Z,15.57
2018-08-11T03:23:11.030Z,15.54
2018-08-11T03:25:04.025Z,15.54
2018-08-11T03:26:04.080Z,15.55
2018-08-11T03:27:57.068Z,15.62
2018-08-11T03:28:57.126Z,15.58
2018-08-11T03:30:50.624Z,15.52
2018-08-11T03:31:50.679Z,15.52
2018-08-11T03:33:43.673Z,15.57
2018-08-11T03:34:43.733Z,15.52
2018-08-11T03:36:36.722Z,15.44
2018-08-11T03:37:36.784Z,15.49
2018-08-11T03:39:29.784Z,15.52
2018-08-11T03:40:29.841Z,15.52
2018-08-11T03:42:22.867Z,15.43
2018-08-11T03:43:22.892Z,15.42
2018-08-11T03:45:15.887Z,15.46
2018-08-11T03:46:15.940Z,15.33
2018-08-11T03:48:08.927Z,15.46
2018-08-11T03:49:08.991Z,15.31
2018-08-11T03:51:01.985Z,15.39
2018-08-11T03:52:02.041Z,15.46
2018-08-11T03:53:55.037Z,15.35
2018-08-11T03:54:55.089Z,15.46
2018-08-11T03:56:48.091Z,15.46
2018-08-11T03:57:48.141Z,15.33
2018-08-11T03:59:41.139Z,15.35
2018-08-11T04:00:41.191Z,15.27
2018-08-11T04:02:34.173Z,15.27
2018-08-11T04:03:34.240Z,15.17
2018-08-11T04:05:27.239Z,15.11
2018-08-11T04:06:27.306Z,15.15
2018-08-11T04:08:20.786Z,15.04
2018-08-11T04:09:20.845Z,15.06
2018-08-11T04:11:13.838Z,15.07
2018-08-11T04:12:13.891Z,15.06
2018-08-11T04:14:06.881Z,15.04
2018-08-11T04:15:06.940Z,15.14
2018-08-11T04:16:59.936Z,15.07
2018-08-11T04:17:59.994Z,15.06
2018-08-11T04:19:52.991Z,15.10
2018-08-11T04:20:53.045Z,15.06
2018-08-11T04:22:46.028Z,15.04
2018-08-11T04:23:46.093Z,15.06
2018-08-11T04:25:39.089Z,15.07
2018-08-11T04:26:39.144Z,15.09
2018-08-11T04:28:32.129Z,15.02
2018-08-11T04:29:32.194Z,14.89
2018-08-11T04:31:25.185Z,14.82
2018-08-11T04:32:25.245Z,14.88
2018-08-11T04:34:18.239Z,14.85
2018-08-11T04:35:18.294Z,14.84
2018-08-11T04:37:11.283Z,14.82
2018-08-11T04:38:11.345Z,14.84
2018-08-11T04:40:04.337Z,14.85
2018-08-11T04:41:04.396Z,14.84
2018-08-11T04:42:57.385Z,14.91
2018-08-11T04:43:57.442Z,14.92
2018-08-11T04:45:50.440Z,14.81
2018-08-11T04:46:50.490Z,14.91
2018-08-11T04:48:43.482Z,14.96
2018-08-11T04:49:43.540Z,15.06
2018-08-11T04:51:36.533Z,15.09
2018-08-11T04:52:36.585Z,15.04
2018-08-11T04:54:29.580Z,15.14
2018-08-11T04:55:29.633Z,15.14
2018-08-11T04:57:22.621Z,15.17
2018-08-11T04:58:22.686Z,15.18
2018-08-11T05:00:15.676Z,15.24
2018-08-11T05:01:15.736Z,15.29
2018-08-11T05:03:08.718Z,15.28
2018-08-11T05:04:08.781Z,15.19
2018-08-11T05:06:01.778Z,15.28
2018-08-11T05:07:01.831Z,15.28
2018-08-11T05:08:55.334Z,15.21
2018-08-11T05:09:55.397Z,15.24
2018-08-11T05:11:48.388Z,15.43
2018-08-11T05:12:48.443Z,15.39
2018-08-11T05:14:41.438Z,15.39
2018-08-11T05:15:41.488Z,15.39
2018-08-11T05:17:34.475Z,15.36
2018-08-11T05:18:34.538Z,15.36
2018-08-11T05:20:27.530Z,15.46
2018-08-11T05:21:27.584Z,15.42
2018-08-11T05:23:20.575Z,15.39
2018-08-11T05:24:20.632Z,15.43
2018-08-11T05:26:13.640Z,15.59
2018-08-11T05:27:13.681Z,15.59
2018-08-11T05:29:06.672Z,15.68
2018-08-11T05:30:06.737Z,15.65
2018-08-11T05:31:59.734Z,15.88
2018-08-11T05:32:59.793Z,15.92
2018-08-11T05:34:52.792Z,15.86
2018-08-11T05:35:52.850Z,15.91
2018-08-11T05:37:45.835Z,15.91
2018-08-11T05:38:45.897Z,15.90
2018-08-11T05:40:38.890Z,15.91
2018-08-11T05:41:38.984Z,16.04
2018-08-11T05:43:31.932Z,16.04
2018-08-11T05:44:31.998Z,16.04
2018-08-11T05:46:25.062Z,15.97
2018-08-11T05:47:25.044Z,15.92
2018-08-11T05:49:18.031Z,15.94
2018-08-11T05:50:18.093Z,15.92
2018-08-11T05:52:11.089Z,16.02
2018-08-11T05:53:11.142Z,16.04
2018-08-11T05:55:04.145Z,16.28
2018-08-11T05:56:04.193Z,16.24
2018-08-11T05:57:57.179Z,16.16
2018-08-11T05:58:57.241Z,16.23
2018-08-11T06:00:50.235Z,16.20
2018-08-11T06:01:50.289Z,16.21
2018-08-11T06:03:43.275Z,16.15
2018-08-11T06:04:43.338Z,16.26
2018-08-11T06:06:36.337Z,16.54
2018-08-11T06:07:36.389Z,16.75
2018-08-11T06:09:29.392Z,16.94
2018-08-11T06:10:29.498Z,16.94
2018-08-11T06:12:22.442Z,16.97
2018-08-11T06:13:22.493Z,16.79
2018-08-11T06:15:15.490Z,16.96
2018-08-11T06:16:15.582Z,16.99
2018-08-11T06:18:08.534Z,17.15
2018-08-11T06:19:08.596Z,17.27
2018-08-11T06:21:01.600Z,17.63
2018-08-11T06:22:01.649Z,18.08
2018-08-11T06:23:54.637Z,17.87
2018-08-11T06:24:54.704Z,17.64
2018-08-11T06:26:47.702Z,17.39
2018-08-11T06:27:47.761Z,17.31
2018-08-11T06:29:40.753Z,17.26
2018-08-11T06:30:40.816Z,17.27
2018-08-11T06:32:35.339Z,17.27
2018-08-11T06:33:35.384Z,17.30
2018-08-11T06:35:28.376Z,17.30
2018-08-11T06:36:28.439Z,17.09
2018-08-11T06:38:21.426Z,18.44
2018-08-11T06:39:21.502Z,19.62
2018-08-11T06:41:14.487Z,22.39
2018-08-11T06:42:14.543Z,23.39
2018-08-11T06:44:07.528Z,24.45
2018-08-11T06:45:07.595Z,24.39
2018-08-11T06:47:00.611Z,23.78
2018-08-11T06:48:00.660Z,23.88
2018-08-11T06:49:53.657Z,22.43
2018-08-11T06:50:53.723Z,22.14
2018-08-11T06:52:46.722Z,21.43
2018-08-11T06:53:46.780Z,20.80
2018-08-11T06:55:39.898Z,20.24
2018-08-11T06:56:39.849Z,19.86
2018-08-11T06:58:32.851Z,22.50
2018-08-11T06:59:32.910Z,23.46
2018-08-11T07:01:25.916Z,24.74
2018-08-11T07:02:25.977Z,25.66
2018-08-11T07:04:18.979Z,26.63
2018-08-11T07:05:19.045Z,27.29
2018-08-11T07:07:12.053Z,27.74
2018-08-11T07:08:12.112Z,27.65
2018-08-11T07:10:05.125Z,26.37
2018-08-11T07:11:05.186Z,26.83
2018-08-11T07:12:58.190Z,26.97
2018-08-11T07:13:58.255Z,27.80
2018-08-11T07:15:51.263Z,27.36
2018-08-11T07:16:51.327Z,27.10
2018-08-11T07:18:44.837Z,27.22
2018-08-11T07:19:44.907Z,28.01
2018-08-11T07:21:37.914Z,28.78
2018-08-11T07:22:37.978Z,28.93
2018-08-11T07:24:30.990Z,28.32
2018-08-11T07:25:31.054Z,26.77
2018-08-11T07:27:24.065Z,28.49
2018-08-11T07:28:24.128Z,28.93
2018-08-11T07:30:17.153Z,29.87
2018-08-11T07:31:17.209Z,30.66
2018-08-11T07:33:10.219Z,31.33
2018-08-11T07:34:10.284Z,31.85
2018-08-11T07:36:03.363Z,31.44
2018-08-11T07:37:03.364Z,31.69
2018-08-11T07:38:56.378Z,31.93
2018-08-11T07:39:56.447Z,31.66
2018-08-11T07:41:49.475Z,30.37
2018-08-11T07:42:49.543Z,28.32
2018-08-11T07:44:42.556Z,29.38
2018-08-11T07:45:42.629Z,29.71
2018-08-11T07:47:35.679Z,31.03
2018-08-11T07:48:35.726Z,30.44
2018-08-11T07:50:28.818Z,30.23
2018-08-11T07:51:28.813Z,30.72
2018-08-11T07:53:21.850Z,31.47
2018-08-11T07:54:21.898Z,29.68
2018-08-11T07:56:14.925Z,30.34
2018-08-11T07:57:14.983Z,30.19
2018-08-11T07:59:07.999Z,30.72
2018-08-11T08:00:08.074Z,31.29
2018-08-11T08:02:01.091Z,32.36
2018-08-11T08:03:01.161Z,32.56
2018-08-11T08:04:54.189Z,30.80
2018-08-11T08:05:54.251Z,31.43
2018-08-11T08:07:47.264Z,30.57
2018-08-11T08:08:47.335Z,31.18
2018-08-11T08:10:40.353Z,32.51
2018-08-11T08:11:40.428Z,31.54
2018-08-11T08:13:33.493Z,28.98
2018-08-11T08:14:33.522Z,27.75
2018-08-11T08:16:26.582Z,28.37
2018-08-11T08:17:26.608Z,29.14
2018-08-11T08:19:19.618Z,30.28
2018-08-11T08:20:19.690Z,29.81
2018-08-11T08:22:12.710Z,29.63
2018-08-11T08:23:12.777Z,31.21
2018-08-11T08:25:05.794Z,28.39
2018-08-11T08:26:05.891Z,27.02
2018-08-11T08:27:58.884Z,28.25
2018-08-11T08:28:58.951Z,27.65
2018-08-11T08:30:51.970Z,27.86
2018-08-11T08:31:52.038Z,28.59
2018-08-11T08:33:45.114Z,27.33
2018-08-11T08:34:45.121Z,26.78
2018-08-11T08:36:38.134Z,26.89
2018-08-11T08:37:38.214Z,26.40
2018-08-11T08:39:31.212Z,25.08
2018-08-11T08:40:31.327Z,24.76
2018-08-11T08:42:24.298Z,26.19
2018-08-11T08:43:24.359Z,25.23
2018-08-11T08:45:17.367Z,23.99
2018-08-11T08:46:17.450Z,23.58
2018-08-11T08:48:10.458Z,23.59
2018-08-11T08:49:10.514Z,23.21
2018-08-11T08:51:03.525Z,25.06
2018-08-11T08:52:03.593Z,26.71
2018-08-11T08:53:56.621Z,28.19
2018-08-11T08:54:56.672Z,29.04
2018-08-11T08:56:49.701Z,28.93
2018-08-11T08:57:49.756Z,29.19
2018-08-11T08:59:42.770Z,29.72
2018-08-11T09:00:42.843Z,30.35
2018-08-11T09:02:35.864Z,30.99
2018-08-11T09:03:35.935Z,31.34
2018-08-11T09:05:28.948Z,31.81
2018-08-11T09:06:29.026Z,32.34
2018-08-11T09:08:22.050Z,31.65
2018-08-11T09:09:22.109Z,31.51
2018-08-11T09:11:15.126Z,31.37
2018-08-11T09:12:15.200Z,30.80
2018-08-11T09:14:08.234Z,31.25
2018-08-11T09:15:08.305Z,31.28
2018-08-11T09:17:01.332Z,29.68
2018-08-11T09:18:01.404Z,28.14
2018-08-11T09:19:54.421Z,26.81
2018-08-11T09:20:54.495Z,25.93
2018-08-11T09:22:47.523Z,25.21
2018-08-11T09:23:47.587Z,25.80
2018-08-11T09:25:40.598Z,26.38
2018-08-11T09:26:40.669Z,26.53
2018-08-11T09:28:33.692Z,26.55
2018-08-11T09:29:33.754Z,25.70
2018-08-11T09:31:26.769Z,25.28
2018-08-11T09:32:26.840Z,25.22
2018-08-11T09:34:19.854Z,24.78
2018-08-11T09:35:19.919Z,24.91
2018-08-11T09:37:12.941Z,25.22
2018-08-11T09:38:12.998Z,25.47
2018-08-11T09:40:06.009Z,25.23
2018-08-11T09:41:06.075Z,25.26
2018-08-11T09:42:59.103Z,24.85
2018-08-11T09:43:59.157Z,24.81
2018-08-11T09:45:52.172Z,24.85
2018-08-11T09:46:52.233Z,24.70
2018-08-11T09:48:45.251Z,24.63
2018-08-11T09:49:45.312Z,24.53
2018-08-11T09:51:38.315Z,24.60
2018-08-11T09:52:38.383Z,24.51
2018-08-11T09:54:31.396Z,24.50
2018-08-11T09:55:31.457Z,24.48
2018-08-11T09:57:24.483Z,24.57
2018-08-11T09:58:24.530Z,24.68
2018-08-11T10:00:17.532Z,24.78
2018-08-11T10:01:17.601Z,24.78
2018-08-11T10:03:10.608Z,25.25
2018-08-11T10:04:10.672Z,25.35
2018-08-11T10:06:03.677Z,24.95
2018-08-11T10:07:03.739Z,24.54
2018-08-11T10:08:56.745Z,24.33
2018-08-11T10:09:56.808Z,24.36
2018-08-11T10:11:49.815Z,24.53
2018-08-11T10:12:49.882Z,24.57
2018-08-11T10:14:43.399Z,24.73
2018-08-11T10:15:43.457Z,24.78
2018-08-11T10:17:36.465Z,24.55
2018-08-11T10:18:36.568Z,24.48
2018-08-11T10:20:29.546Z,23.93
2018-08-11T10:21:29.609Z,23.88
2018-08-11T10:23:22.622Z,23.61
2018-08-11T10:24:22.683Z,23.66
2018-08-11T10:26:15.682Z,23.86
2018-08-11T10:27:15.752Z,23.96
2018-08-11T10:29:08.767Z,23.93
2018-08-11T10:30:08.821Z,23.81
2018-08-11T10:32:01.821Z,23.55
2018-08-11T10:33:01.890Z,23.28
2018-08-11T10:34:54.895Z,23.18
2018-08-11T10:35:54.996Z,23.25
2018-08-11T10:37:47.980Z,23.34
2018-08-11T10:38:48.024Z,23.31
2018-08-11T10:40:41.025Z,23.03
2018-08-11T10:41:41.094Z,22.83
2018-08-11T10:43:34.101Z,22.88
2018-08-11T10:44:34.165Z,23.09
2018-08-11T10:46:27.160Z,23.77
2018-08-11T10:47:27.249Z,24.03
2018-08-11T10:49:20.241Z,24.47
2018-08-11T10:50:20.300Z,24.61
2018-08-11T10:52:13.300Z,24.57
2018-08-11T10:53:13.368Z,24.57
2018-08-11T10:55:06.374Z,24.32
2018-08-11T10:56:06.455Z,24.21
2018-08-11T10:57:59.439Z,24.05
2018-08-11T10:58:59.507Z,23.98
2018-08-11T11:00:52.512Z,23.73
2018-08-11T11:01:52.572Z,23.62
2018-08-11T11:03:45.581Z,23.18
2018-08-11T11:04:45.645Z,23.03
2018-08-11T11:06:38.645Z,22.94
2018-08-11T11:07:38.715Z,22.88
2018-08-11T11:09:31.721Z,22.99
2018-08-11T11:10:31.782Z,23.08
2018-08-11T11:12:24.784Z,22.85
2018-08-11T11:13:24.850Z,22.90
2018-08-11T11:15:18.376Z,22.73
2018-08-11T11:16:18.423Z,22.90
2018-08-11T11:18:11.426Z,23.40
2018-08-11T11:19:11.490Z,23.68
2018-08-11T11:21:04.493Z,23.80
2018-08-11T11:22:04.560Z,24.03
2018-08-11T11:23:57.582Z,24.17
2018-08-11T11:24:57.620Z,24.20
2018-08-11T11:26:50.619Z,23.98
2018-08-11T11:27:50.687Z,23.84
2018-08-11T11:29:44.201Z,23.86
2018-08-11T11:30:44.264Z,23.81
2018-08-11T11:32:37.272Z,23.87
2018-08-11T11:33:37.339Z,23.80
2018-08-11T11:35:30.346Z,24.08
2018-08-11T11:36:30.404Z,24.02
2018-08-11T11:38:23.402Z,24.21
2018-08-11T11:39:23.471Z,24.33
2018-08-11T11:41:16.479Z,24.40
2018-08-11T11:42:16.536Z,24.21
2018-08-11T11:44:09.542Z,23.73
2018-08-11T11:45:09.604Z,23.66
2018-08-11T11:47:02.604Z,23.51
2018-08-11T11:48:02.688Z,23.66
2018-08-11T11:49:55.676Z,23.77
2018-08-11T11:50:55.735Z,23.83
2018-08-11T11:52:48.739Z,24.24
2018-08-11T11:53:48.803Z,24.36
2018-08-11T11:55:41.815Z,24.50
2018-08-11T11:56:41.876Z,24.36
2018-08-11T11:58:34.875Z,24.39
2018-08-11T11:59:34.946Z,24.24
2018-08-11T12:01:27.946Z,24.10
2018-08-11T12:02:28.008Z,24.11
2018-08-11T12:04:21.014Z,24.16
2018-08-11T12:05:21.078Z,24.24
2018-08-11T12:07:14.076Z,24.20
2018-08-11T12:08:14.143Z,24.08
2018-08-11T12:10:07.150Z,24.08
2018-08-11T12:11:07.214Z,24.10
2018-08-11T12:13:00.211Z,24.02
2018-08-11T12:14:00.279Z,24.06
2018-08-11T12:15:53.285Z,24.40
2018-08-11T12:16:53.344Z,24.54
2018-08-11T12:18:46.343Z,24.74
2018-08-11T12:19:46.412Z,24.95
2018-08-11T12:21:39.442Z,25.06
2018-08-11T12:22:39.474Z,24.96
2018-08-11T12:24:32.481Z,24.84
2018-08-11T12:25:32.540Z,24.66
2018-08-11T12:27:25.537Z,24.66
2018-08-11T12:28:25.605Z,24.57
2018-08-11T12:30:18.616Z,24.54
2018-08-11T12:31:18.765Z,24.20
2018-08-11T12:33:11.681Z,24.57
2018-08-11T12:34:11.740Z,24.74
2018-08-11T12:36:04.748Z,24.92
2018-08-11T12:37:04.808Z,24.93
2018-08-11T12:38:57.809Z,24.96
2018-08-11T12:39:57.874Z,24.98
2018-08-11T12:41:50.880Z,24.61
2018-08-11T12:42:50.943Z,24.61
2018-08-11T12:44:43.950Z,24.45
2018-08-11T12:45:44.017Z,24.35
2018-08-11T12:47:37.011Z,24.28
2018-08-11T12:48:37.084Z,24.40
2018-08-11T12:50:30.084Z,24.48
2018-08-11T12:51:30.146Z,24.51
2018-08-11T12:53:23.156Z,24.36
2018-08-11T12:54:23.216Z,24.13
2018-08-11T12:56:16.224Z,23.76
2018-08-11T12:57:16.281Z,23.62
2018-08-11T12:59:09.283Z,23.78
2018-08-11T13:00:09.352Z,24.01
2018-08-11T13:02:02.353Z,24.39
2018-08-11T13:03:02.413Z,24.63
2018-08-11T13:04:55.424Z,24.68
2018-08-11T13:05:55.483Z,24.74
2018-08-11T13:07:48.500Z,24.69
2018-08-11T13:08:48.570Z,24.63
2018-08-11T13:10:41.579Z,24.66
2018-08-11T13:11:41.639Z,24.53
2018-08-11T13:13:34.642Z,24.69
2018-08-11T13:14:34.707Z,24.68
2018-08-11T13:16:27.716Z,24.51
2018-08-11T13:17:27.772Z,24.16
2018-08-11T13:19:20.776Z,23.88
2018-08-11T13:20:20.843Z,23.78
2018-08-11T13:22:13.849Z,23.77
2018-08-11T13:23:13.912Z,23.74
2018-08-11T13:25:06.914Z,23.56
2018-08-11T13:26:06.976Z,23.51
2018-08-11T13:27:59.980Z,23.41
2018-08-11T13:29:00.048Z,23.51
2018-08-11T13:30:53.047Z,23.59
2018-08-11T13:31:53.109Z,23.68
2018-08-11T13:33:46.108Z,23.58
2018-08-11T13:34:46.174Z,23.61
2018-08-11T13:36:39.177Z,23.55
2018-08-11T13:37:39.239Z,23.58
2018-08-11T13:39:32.240Z,23.78
2018-08-11T13:40:32.309Z,23.81
2018-08-11T13:42:25.311Z,24.10
2018-08-11T13:43:25.371Z,24.23
2018-08-11T13:45:18.375Z,24.45
2018-08-11T13:46:18.448Z,24.47
2018-08-11T13:48:11.431Z,24.43
2018-08-11T13:49:11.500Z,24.32
2018-08-11T13:51:04.509Z,24.13
2018-08-11T13:52:04.562Z,23.99
2018-08-11T13:53:57.560Z,24.03
2018-08-11T13:54:57.629Z,24.23
2018-08-11T13:56:50.628Z,24.30
2018-08-11T13:57:50.693Z,24.39
2018-08-11T13:59:43.686Z,24.42
2018-08-11T14:00:43.751Z,24.26
2018-08-11T14:02:36.754Z,24.11
2018-08-11T14:03:36.815Z,24.11
2018-08-11T14:05:29.818Z,24.21
2018-08-11T14:06:29.882Z,24.20
2018-08-11T14:08:22.885Z,24.28
2018-08-11T14:09:22.946Z,24.24
2018-08-11T14:11:15.949Z,24.36
2018-08-11T14:12:16.005Z,24.38
2018-08-11T14:14:09.006Z,24.38
2018-08-11T14:15:09.074Z,24.28
2018-08-11T14:17:02.082Z,24.11
2018-08-11T14:18:02.150Z,23.86
2018-08-11T14:19:55.145Z,23.76
2018-08-11T14:20:55.208Z,23.69
2018-08-11T14:22:48.212Z,23.84
2018-08-11T14:23:48.271Z,23.76
2018-08-11T14:25:41.303Z,23.65
2018-08-11T14:26:41.336Z,23.66
2018-08-11T14:28:34.332Z,23.83
2018-08-11T14:29:34.398Z,23.91
2018-08-11T14:31:27.403Z,23.84
2018-08-11T14:32:27.464Z,23.69
2018-08-11T14:34:20.468Z,23.62
2018-08-11T14:35:20.526Z,23.61
2018-08-11T14:37:13.530Z,23.55
2018-08-11T14:38:13.587Z,23.58
2018-08-11T14:40:06.590Z,23.62
2018-08-11T14:41:06.646Z,23.66
2018-08-11T14:42:59.655Z,23.69
2018-08-11T14:43:59.718Z,23.69
2018-08-11T14:45:52.718Z,23.87
2018-08-11T14:46:52.779Z,23.93
2018-08-11T14:48:45.773Z,24.14
2018-08-11T14:49:45.841Z,24.21
2018-08-11T14:51:38.843Z,24.45
2018-08-11T14:52:38.904Z,24.53
2018-08-11T14:54:31.905Z,24.48
2018-08-11T14:55:31.974Z,24.54
2018-08-11T14:57:24.990Z,24.57
2018-08-11T14:58:25.041Z,24.48
2018-08-11T15:00:18.043Z,24.32
2018-08-11T15:01:18.104Z,24.11
2018-08-11T15:03:11.116Z,24.11
2018-08-11T15:04:11.176Z,24.01
2018-08-11T15:06:04.195Z,23.78
2018-08-11T15:07:04.237Z,23.71
2018-08-11T15:08:57.243Z,23.74
2018-08-11T15:09:57.311Z,23.69
2018-08-11T15:11:50.306Z,23.69
2018-08-11T15:12:50.381Z,23.68
2018-08-11T15:14:43.364Z,23.69
2018-08-11T15:15:43.481Z,23.81
2018-08-11T15:17:36.433Z,23.98
2018-08-11T15:18:36.495Z,23.96
2018-08-11T15:20:29.490Z,23.95
2018-08-11T15:21:29.558Z,23.87
2018-08-11T15:23:22.561Z,23.73
2018-08-11T15:24:22.625Z,23.68
2018-08-11T15:26:15.624Z,23.68
2018-08-11T15:27:15.685Z,23.58
2018-08-11T15:29:09.188Z,23.51
2018-08-11T15:30:09.255Z,23.47
2018-08-11T15:32:02.262Z,23.34
2018-08-11T15:33:02.320Z,23.44
2018-08-11T15:34:55.317Z,23.46
2018-08-11T15:35:55.382Z,23.46
2018-08-11T15:37:48.390Z,23.25
2018-08-11T15:38:48.449Z,23.36
2018-08-11T15:40:41.441Z,23.20
2018-08-11T15:41:41.508Z,23.12
2018-08-11T15:43:34.513Z,23.05
2018-08-11T15:44:34.577Z,23.09
2018-08-11T15:46:27.578Z,23.06
2018-08-11T15:47:27.639Z,23.12
2018-08-11T15:49:20.639Z,23.20
2018-08-11T15:50:20.703Z,23.32
2018-08-11T15:52:13.706Z,23.41
2018-08-11T15:53:13.769Z,23.47
2018-08-11T15:55:06.763Z,23.51
2018-08-11T15:56:06.827Z,23.61
2018-08-11T15:57:59.833Z,23.54
2018-08-11T15:58:59.890Z,23.63
2018-08-11T16:00:52.885Z,23.55
2018-08-11T16:01:52.952Z,23.55
2018-08-11T16:03:45.954Z,23.36
2018-08-11T16:04:46.014Z,23.32
2018-08-11T16:06:39.015Z,23.32
2018-08-11T16:07:39.083Z,23.34
2018-08-11T16:09:32.132Z,23.31
2018-08-11T16:10:32.139Z,23.25
2018-08-11T16:12:25.138Z,22.98
2018-08-11T16:13:25.198Z,22.93
2018-08-11T16:15:18.211Z,22.84
2018-08-11T16:16:18.267Z,22.90
2018-08-11T16:18:11.268Z,22.81
2018-08-11T16:19:11.327Z,22.81
2018-08-11T16:21:04.330Z,22.84
2018-08-11T16:22:04.394Z,22.78
2018-08-11T16:23:57.398Z,22.98
2018-08-11T16:24:57.459Z,22.99
2018-08-11T16:26:50.460Z,23.05
2018-08-11T16:27:50.519Z,22.99
2018-08-11T16:29:43.514Z,23.17
2018-08-11T16:30:43.583Z,23.13
2018-08-11T16:32:36.588Z,22.99
2018-08-11T16:33:36.644Z,23.05
2018-08-11T16:35:29.646Z,22.98
2018-08-11T16:36:29.709Z,23.02
2018-08-11T16:38:22.711Z,22.90
2018-08-11T16:39:22.848Z,22.68
2018-08-11T16:41:15.775Z,22.60
2018-08-11T16:42:15.843Z,22.57
2018-08-11T16:44:08.844Z,22.47
2018-08-11T16:45:08.903Z,22.45
2018-08-11T16:47:01.905Z,22.36
2018-08-11T16:48:01.997Z,22.36
2018-08-11T16:49:54.958Z,22.35
2018-08-11T16:50:55.026Z,22.38
2018-08-11T16:52:48.026Z,22.30
2018-08-11T16:53:48.144Z,22.25
2018-08-11T16:55:41.080Z,22.35
2018-08-11T16:56:41.146Z,22.44
2018-08-11T16:58:34.148Z,22.55
2018-08-11T16:59:34.302Z,22.63
2018-08-11T17:01:27.202Z,22.66
2018-08-11T17:02:27.266Z,22.70
2018-08-11T17:04:20.269Z,22.76
2018-08-11T17:05:20.330Z,22.78
2018-08-11T17:07:13.334Z,22.68
2018-08-11T17:08:13.392Z,22.69
2018-08-11T17:10:06.441Z,22.80
2018-08-11T17:11:06.508Z,22.76
2018-08-11T17:12:59.510Z,22.80
2018-08-11T17:13:59.569Z,22.66
2018-08-11T17:15:52.567Z,22.70
2018-08-11T17:16:52.631Z,22.70
2018-08-11T17:18:45.632Z,22.63
2018-08-11T17:19:45.691Z,22.54
2018-08-11T17:21:38.687Z,22.55
2018-08-11T17:22:38.753Z,22.57
2018-08-11T17:24:31.753Z,22.48
2018-08-11T17:25:31.813Z,22.57
2018-08-11T17:27:24.815Z,22.54
2018-08-11T17:28:24.874Z,22.43
2018-08-11T17:30:17.871Z,22.44
2018-08-11T17:31:17.939Z,22.43
2018-08-11T17:33:10.937Z,22.50
2018-08-11T17:34:10.995Z,22.41
2018-08-11T17:36:03.992Z,22.39
2018-08-11T17:37:04.057Z,22.32
2018-08-11T17:38:57.058Z,22.22
2018-08-11T17:39:57.116Z,22.17
2018-08-11T17:41:50.109Z,22.13
2018-08-11T17:42:50.180Z,21.99
2018-08-11T17:44:43.178Z,22.04
2018-08-11T17:45:43.238Z,22.02
2018-08-11T17:47:36.239Z,22.06
2018-08-11T17:48:36.297Z,22.04
2018-08-11T17:50:29.293Z,21.99
2018-08-11T17:51:29.356Z,22.04
2018-08-11T17:53:22.357Z,21.99
2018-08-11T17:54:22.420Z,21.96
2018-08-11T17:56:15.414Z,21.89
2018-08-11T17:57:15.477Z,21.80
2018-08-11T17:59:08.477Z,21.82
2018-08-11T18:00:08.544Z,21.79
2018-08-11T18:02:01.530Z,21.82
2018-08-11T18:03:01.594Z,21.82
2018-08-11T18:04:54.595Z,21.77
2018-08-11T18:05:54.656Z,21.62
2018-08-11T18:07:47.662Z,21.48
2018-08-11T18:08:47.721Z,21.54
2018-08-11T18:10:40.722Z,21.50
2018-08-11T18:11:40.781Z,21.43
2018-08-11T18:13:33.782Z,21.54
2018-08-11T18:14:33.841Z,21.40
2018-08-11T18:16:26.835Z,21.45
2018-08-11T18:17:26.899Z,21.45
2018-08-11T18:19:19.899Z,21.39
2018-08-11T18:20:19.958Z,21.29
2018-08-11T18:22:12.953Z,21.30
2018-08-11T18:23:13.016Z,21.24
2018-08-11T18:25:06.017Z,21.22
2018-08-11T18:26:06.075Z,21.20
2018-08-11T18:27:59.084Z,21.03
2018-08-11T18:28:59.134Z,21.02
2018-08-11T18:30:52.129Z,21.02
2018-08-11T18:31:52.196Z,20.96
2018-08-11T18:33:45.195Z,20.88